GLD1287 SBSN-SBBV
Flight info
| Callsign | GLD1287 |
|---|---|
| Flight time | 1h 22m |
| Altitude | 3800 |
| Route | MUMD1A SOBID LODOK UZ24 ILVIS ANBIX BV022 I08W |
| Aircraft | C25C/M-SDFGIRY/S |
Departure
| Time | 2026-04-21 22:04 |
|---|---|
| Airport | Santarém - Maestro Wilson Fonseca International Airport (SBSN) |
Arrival
| Time | 2026-04-21 23:26 |
|---|---|
| Airport | Atlas Brasil Cantanhede International Airport (SBBV) |
| Time | Latitude | Longitude | Altitude | Speed | Heading |
|---|---|---|---|---|---|
| 2026-04-21 21:23 | -2.42451 | -54.78867 | 201 ft | 0 kts | 80° |
| 2026-04-21 21:56 | -2.42418 | -54.78839 | 201 ft | 10 kts | 34° |
| 2026-04-21 21:56 | -2.42368 | -54.78827 | 200 ft | 13 kts | 310° |
| 2026-04-21 21:56 | -2.42313 | -54.78829 | 200 ft | 10 kts | 57° |
| 2026-04-21 21:56 | -2.42317 | -54.78764 | 200 ft | 0 kts | 84° |
| 2026-04-21 21:57 | -2.42313 | -54.78739 | 202 ft | 0 kts | 78° |
| 2026-04-21 21:57 | -2.42310 | -54.78721 | 200 ft | 7 kts | 79° |
| 2026-04-21 21:57 | -2.42303 | -54.78677 | 201 ft | 8 kts | 81° |
| 2026-04-21 21:57 | -2.42315 | -54.78633 | 201 ft | 10 kts | 133° |
| 2026-04-21 21:58 | -2.42338 | -54.78555 | 203 ft | 17 kts | 57° |
| 2026-04-21 21:58 | -2.42299 | -54.78437 | 203 ft | 6 kts | 85° |
| 2026-04-21 21:58 | -2.42306 | -54.78363 | 201 ft | 13 kts | 92° |
| 2026-04-21 21:58 | -2.42247 | -54.78299 | 203 ft | 18 kts | 26° |
| 2026-04-21 21:59 | -2.42172 | -54.78260 | 204 ft | 0 kts | 25° |
| 2026-04-21 22:00 | -2.42171 | -54.78260 | 203 ft | 0 kts | 25° |
| 2026-04-21 22:01 | -2.42169 | -54.78259 | 203 ft | 0 kts | 25° |
| 2026-04-21 22:01 | -2.42147 | -54.78248 | 203 ft | 10 kts | 25° |
| 2026-04-21 22:02 | -2.42087 | -54.78222 | 203 ft | 1 kts | 359° |
| 2026-04-21 22:02 | -2.42074 | -54.78227 | 207 ft | 1 kts | 322° |
| 2026-04-21 22:02 | -2.42067 | -54.78241 | 201 ft | 3 kts | 284° |
| 2026-04-21 22:02 | -2.42067 | -54.78256 | 201 ft | 0 kts | 258° |
| 2026-04-21 22:03 | -2.42128 | -54.78552 | 202 ft | 106 kts | 258° |
| 2026-04-21 22:04 | -2.42324 | -54.79602 | 490 ft | 185 kts | 260° |
| 2026-04-21 22:04 | -2.42540 | -54.81027 | 1341 ft | 217 kts | 262° |
| 2026-04-21 22:04 | -2.42765 | -54.82518 | 2809 ft | 217 kts | 260° |
| 2026-04-21 22:04 | -2.43000 | -54.84005 | 4258 ft | 215 kts | 263° |
| 2026-04-21 22:05 | -2.42823 | -54.85482 | 5655 ft | 215 kts | 285° |
| 2026-04-21 22:05 | -2.42220 | -54.86836 | 7008 ft | 213 kts | 303° |
| 2026-04-21 22:05 | -2.41390 | -54.88052 | 8347 ft | 211 kts | 302° |
| 2026-04-21 22:05 | -2.40629 | -54.89294 | 9716 ft | 208 kts | 302° |
| 2026-04-21 22:06 | -2.39845 | -54.90503 | 10963 ft | 206 kts | 303° |
| 2026-04-21 22:06 | -2.39078 | -54.91703 | 12217 ft | 204 kts | 303° |
| 2026-04-21 22:06 | -2.38311 | -54.92886 | 13498 ft | 202 kts | 303° |
| 2026-04-21 22:06 | -2.37560 | -54.94062 | 14646 ft | 200 kts | 303° |
| 2026-04-21 22:07 | -2.36808 | -54.95224 | 15791 ft | 198 kts | 304° |
| 2026-04-21 22:07 | -2.36067 | -54.96379 | 16945 ft | 197 kts | 304° |
| 2026-04-21 22:07 | -2.35326 | -54.97525 | 18121 ft | 196 kts | 304° |
| 2026-04-21 22:07 | -2.34575 | -54.98699 | 19116 ft | 204 kts | 304° |
| 2026-04-21 22:08 | -2.33796 | -54.99901 | 20170 ft | 208 kts | 304° |
| 2026-04-21 22:08 | -2.33015 | -55.01123 | 21264 ft | 209 kts | 304° |
| 2026-04-21 22:08 | -2.32223 | -55.02348 | 22387 ft | 210 kts | 305° |
| 2026-04-21 22:08 | -2.31437 | -55.03576 | 23503 ft | 209 kts | 304° |
| 2026-04-21 22:09 | -2.30650 | -55.04794 | 24420 ft | 208 kts | 304° |
| 2026-04-21 22:09 | -2.29868 | -55.06012 | 25330 ft | 207 kts | 303° |
| 2026-04-21 22:09 | -2.29091 | -55.07219 | 26226 ft | 206 kts | 304° |
| 2026-04-21 22:09 | -2.28316 | -55.08421 | 27112 ft | 205 kts | 302° |
| 2026-04-21 22:10 | -2.27551 | -55.09614 | 27970 ft | 205 kts | 303° |
| 2026-04-21 22:10 | -2.26750 | -55.10850 | 28568 ft | 220 kts | 302° |
| 2026-04-21 22:10 | -2.25876 | -55.12219 | 28899 ft | 248 kts | 303° |
| 2026-04-21 22:10 | -2.24888 | -55.13742 | 29240 ft | 274 kts | 302° |
| 2026-04-21 22:11 | -2.23815 | -55.15417 | 29598 ft | 298 kts | 302° |
| 2026-04-21 22:11 | -2.22653 | -55.17219 | 29960 ft | 319 kts | 302° |
| 2026-04-21 22:11 | -2.21412 | -55.19150 | 30268 ft | 339 kts | 302° |
| 2026-04-21 22:11 | -2.20102 | -55.21181 | 30630 ft | 355 kts | 302° |
| 2026-04-21 22:12 | -2.18745 | -55.23292 | 31115 ft | 366 kts | 302° |
| 2026-04-21 22:12 | -2.17348 | -55.25459 | 31604 ft | 375 kts | 302° |
| 2026-04-21 22:12 | -2.15924 | -55.27674 | 32094 ft | 383 kts | 302° |
| 2026-04-21 22:12 | -2.14463 | -55.29940 | 32586 ft | 391 kts | 302° |
| 2026-04-21 22:13 | -2.12981 | -55.32243 | 33078 ft | 398 kts | 302° |
| 2026-04-21 22:13 | -2.11472 | -55.34585 | 33581 ft | 403 kts | 302° |
| 2026-04-21 22:13 | -2.09945 | -55.36958 | 34055 ft | 408 kts | 302° |
| 2026-04-21 22:13 | -2.08406 | -55.39358 | 34491 ft | 411 kts | 301° |
| 2026-04-21 22:14 | -2.06963 | -55.41833 | 34952 ft | 413 kts | 300° |
| 2026-04-21 22:14 | -2.05508 | -55.44294 | 35561 ft | 411 kts | 301° |
| 2026-04-21 22:14 | -2.04045 | -55.46738 | 36190 ft | 408 kts | 301° |
| 2026-04-21 22:14 | -2.02603 | -55.49172 | 36825 ft | 405 kts | 301° |
| 2026-04-21 22:15 | -2.01180 | -55.51592 | 37480 ft | 402 kts | 302° |
| 2026-04-21 22:15 | -1.99756 | -55.54001 | 37854 ft | 407 kts | 302° |
| 2026-04-21 22:15 | -1.98286 | -55.56481 | 37859 ft | 421 kts | 302° |
| 2026-04-21 22:15 | -1.96770 | -55.59040 | 37857 ft | 433 kts | 302° |
| 2026-04-21 22:16 | -1.95243 | -55.61628 | 37866 ft | 443 kts | 302° |
| 2026-04-21 22:16 | -1.92079 | -55.66979 | 37871 ft | 448 kts | 302° |
| 2026-04-21 22:17 | -1.88909 | -55.72335 | 37874 ft | 447 kts | 302° |
| 2026-04-21 22:17 | -1.85747 | -55.77680 | 37874 ft | 447 kts | 302° |
| 2026-04-21 22:18 | -1.82582 | -55.83030 | 37873 ft | 447 kts | 301° |
| 2026-04-21 22:18 | -1.79421 | -55.88373 | 37871 ft | 446 kts | 301° |
| 2026-04-21 22:19 | -1.76260 | -55.93713 | 37871 ft | 446 kts | 301° |
| 2026-04-21 22:19 | -1.73102 | -55.99050 | 37869 ft | 446 kts | 301° |
| 2026-04-21 22:20 | -1.69944 | -56.04385 | 37872 ft | 446 kts | 301° |
| 2026-04-21 22:20 | -1.66788 | -56.09715 | 37869 ft | 446 kts | 301° |
| 2026-04-21 22:21 | -1.63632 | -56.15045 | 37870 ft | 445 kts | 301° |
| 2026-04-21 22:21 | -1.60479 | -56.20374 | 37871 ft | 445 kts | 301° |
| 2026-04-21 22:22 | -1.57325 | -56.25698 | 37874 ft | 445 kts | 301° |
| 2026-04-21 22:22 | -1.54169 | -56.31030 | 37874 ft | 445 kts | 301° |
| 2026-04-21 22:23 | -1.51013 | -56.36358 | 37871 ft | 446 kts | 301° |
| 2026-04-21 22:23 | -1.47856 | -56.41689 | 37872 ft | 446 kts | 301° |
| 2026-04-21 22:24 | -1.44716 | -56.46991 | 37872 ft | 446 kts | 301° |
| 2026-04-21 22:24 | -1.41552 | -56.52333 | 37874 ft | 447 kts | 301° |
| 2026-04-21 22:25 | -1.38386 | -56.57679 | 37874 ft | 447 kts | 301° |
| 2026-04-21 22:25 | -1.35218 | -56.63026 | 37875 ft | 448 kts | 301° |
| 2026-04-21 22:26 | -1.32046 | -56.68382 | 37873 ft | 448 kts | 301° |
| 2026-04-21 22:26 | -1.28872 | -56.73741 | 37879 ft | 448 kts | 301° |
| 2026-04-21 22:27 | -1.25694 | -56.79104 | 37876 ft | 448 kts | 301° |
| 2026-04-21 22:27 | -1.22519 | -56.84464 | 37879 ft | 448 kts | 301° |
| 2026-04-21 22:28 | -1.19340 | -56.89830 | 37879 ft | 449 kts | 301° |
| 2026-04-21 22:28 | -1.16161 | -56.95193 | 37881 ft | 449 kts | 301° |
| 2026-04-21 22:29 | -1.12982 | -57.00558 | 37877 ft | 449 kts | 301° |
| 2026-04-21 22:29 | -1.09805 | -57.05919 | 37878 ft | 449 kts | 301° |
| 2026-04-21 22:30 | -1.06625 | -57.11284 | 37881 ft | 448 kts | 301° |
| 2026-04-21 22:30 | -1.03448 | -57.16645 | 37882 ft | 448 kts | 301° |
| 2026-04-21 22:31 | -1.00270 | -57.22007 | 37882 ft | 448 kts | 301° |
| 2026-04-21 22:31 | -0.97090 | -57.27368 | 37880 ft | 448 kts | 302° |
| 2026-04-21 22:32 | -0.93918 | -57.32724 | 37882 ft | 448 kts | 301° |
| 2026-04-21 22:32 | -0.90739 | -57.38082 | 37886 ft | 448 kts | 301° |
| 2026-04-21 22:33 | -0.87565 | -57.43439 | 37888 ft | 448 kts | 301° |
| 2026-04-21 22:33 | -0.84392 | -57.48790 | 37885 ft | 448 kts | 302° |
| 2026-04-21 22:34 | -0.81756 | -57.53240 | 37881 ft | 448 kts | 302° |
| 2026-04-21 22:34 | -0.78581 | -57.58593 | 37884 ft | 448 kts | 302° |
| 2026-04-21 22:35 | -0.75408 | -57.63944 | 37887 ft | 447 kts | 302° |
| 2026-04-21 22:35 | -0.72236 | -57.69293 | 37887 ft | 447 kts | 302° |
| 2026-04-21 22:36 | -0.67479 | -57.77315 | 37895 ft | 447 kts | 302° |
| 2026-04-21 22:36 | -0.65654 | -57.79812 | 37874 ft | 445 kts | 313° |
| 2026-04-21 22:36 | -0.63526 | -57.82053 | 37874 ft | 444 kts | 315° |
| 2026-04-21 22:37 | -0.59289 | -57.86550 | 37875 ft | 445 kts | 315° |
| 2026-04-21 22:37 | -0.55044 | -57.91050 | 37879 ft | 445 kts | 315° |
| 2026-04-21 22:38 | -0.50801 | -57.95549 | 37893 ft | 445 kts | 315° |
| 2026-04-21 22:38 | -0.46558 | -58.00050 | 37886 ft | 445 kts | 315° |
| 2026-04-21 22:39 | -0.42312 | -58.04550 | 37891 ft | 445 kts | 315° |
| 2026-04-21 22:39 | -0.38066 | -58.09052 | 37884 ft | 445 kts | 315° |
| 2026-04-21 22:40 | -0.33846 | -58.13526 | 37887 ft | 445 kts | 314° |
| 2026-04-21 22:40 | -0.29604 | -58.18023 | 37889 ft | 445 kts | 314° |
| 2026-04-21 22:41 | -0.25353 | -58.22529 | 37887 ft | 445 kts | 314° |
| 2026-04-21 22:41 | -0.21106 | -58.27031 | 37886 ft | 445 kts | 314° |
| 2026-04-21 22:42 | -0.16851 | -58.31542 | 37888 ft | 446 kts | 314° |
| 2026-04-21 22:42 | -0.12600 | -58.36049 | 37886 ft | 446 kts | 314° |
| 2026-04-21 22:43 | -0.08341 | -58.40562 | 37890 ft | 447 kts | 314° |
| 2026-04-21 22:43 | -0.04081 | -58.45080 | 37895 ft | 447 kts | 314° |
| 2026-04-21 22:44 | 0.00184 | -58.49600 | 37885 ft | 447 kts | 314° |
| 2026-04-21 22:44 | 0.04453 | -58.54126 | 37890 ft | 447 kts | 314° |
| 2026-04-21 22:45 | 0.08723 | -58.58652 | 37886 ft | 448 kts | 314° |
| 2026-04-21 22:45 | 0.12991 | -58.63178 | 37896 ft | 448 kts | 314° |
| 2026-04-21 22:46 | 0.17264 | -58.67707 | 37881 ft | 448 kts | 314° |
| 2026-04-21 22:46 | 0.21540 | -58.72240 | 37881 ft | 448 kts | 314° |
| 2026-04-21 22:47 | 0.25818 | -58.76776 | 37880 ft | 449 kts | 314° |
| 2026-04-21 22:47 | 0.30098 | -58.81313 | 37881 ft | 449 kts | 314° |
| 2026-04-21 22:48 | 0.34381 | -58.85854 | 37883 ft | 449 kts | 314° |
| 2026-04-21 22:48 | 0.38665 | -58.90394 | 37880 ft | 449 kts | 314° |
| 2026-04-21 22:49 | 0.42952 | -58.94940 | 37888 ft | 449 kts | 314° |
| 2026-04-21 22:49 | 0.47239 | -58.99485 | 37880 ft | 450 kts | 314° |
| 2026-04-21 22:50 | 0.51505 | -59.04007 | 37889 ft | 450 kts | 314° |
| 2026-04-21 22:50 | 0.55796 | -59.08557 | 37882 ft | 450 kts | 314° |
| 2026-04-21 22:51 | 0.60089 | -59.13109 | 37884 ft | 450 kts | 314° |
| 2026-04-21 22:51 | 0.64383 | -59.17662 | 37890 ft | 450 kts | 314° |
| 2026-04-21 22:52 | 0.68678 | -59.22216 | 37885 ft | 451 kts | 314° |
| 2026-04-21 22:52 | 0.72980 | -59.26778 | 37884 ft | 451 kts | 314° |
| 2026-04-21 22:53 | 0.77282 | -59.31339 | 37889 ft | 451 kts | 314° |
| 2026-04-21 22:53 | 0.81679 | -59.35802 | 37875 ft | 450 kts | 318° |
| 2026-04-21 22:54 | 0.86301 | -59.40025 | 37877 ft | 450 kts | 318° |
| 2026-04-21 22:54 | 0.90885 | -59.44294 | 37877 ft | 451 kts | 318° |
| 2026-04-21 22:55 | 0.95494 | -59.48540 | 37878 ft | 451 kts | 318° |
| 2026-04-21 22:55 | 1.00096 | -59.52803 | 37879 ft | 451 kts | 318° |
| 2026-04-21 22:56 | 1.04699 | -59.57055 | 37879 ft | 451 kts | 318° |
| 2026-04-21 22:56 | 1.09300 | -59.61312 | 37872 ft | 451 kts | 318° |
| 2026-04-21 22:57 | 1.13904 | -59.65568 | 37874 ft | 451 kts | 318° |
| 2026-04-21 22:57 | 1.18513 | -59.69824 | 37869 ft | 451 kts | 318° |
| 2026-04-21 22:58 | 1.23119 | -59.74080 | 37877 ft | 451 kts | 318° |
| 2026-04-21 22:58 | 1.27722 | -59.78332 | 37866 ft | 451 kts | 318° |
| 2026-04-21 22:59 | 1.32327 | -59.82588 | 37861 ft | 450 kts | 318° |
| 2026-04-21 22:59 | 1.36927 | -59.86837 | 37859 ft | 450 kts | 318° |
| 2026-04-21 23:00 | 1.41524 | -59.91084 | 37856 ft | 450 kts | 318° |
| 2026-04-21 23:00 | 1.46115 | -59.95327 | 37849 ft | 449 kts | 318° |
| 2026-04-21 23:01 | 1.50700 | -59.99565 | 37849 ft | 449 kts | 317° |
| 2026-04-21 23:01 | 1.55289 | -60.03806 | 37836 ft | 449 kts | 318° |
| 2026-04-21 23:02 | 1.59876 | -60.08046 | 37837 ft | 449 kts | 317° |
| 2026-04-21 23:02 | 1.64468 | -60.12296 | 37830 ft | 450 kts | 317° |
| 2026-04-21 23:03 | 1.68995 | -60.16485 | 37474 ft | 430 kts | 318° |
| 2026-04-21 23:03 | 1.71173 | -60.18499 | 36928 ft | 423 kts | 318° |
| 2026-04-21 23:03 | 1.73283 | -60.20452 | 36401 ft | 416 kts | 318° |
| 2026-04-21 23:04 | 1.75415 | -60.22423 | 35852 ft | 409 kts | 318° |
| 2026-04-21 23:04 | 1.77476 | -60.24329 | 35151 ft | 409 kts | 318° |
| 2026-04-21 23:04 | 1.79557 | -60.26255 | 34459 ft | 407 kts | 319° |
| 2026-04-21 23:04 | 1.81630 | -60.28173 | 33773 ft | 405 kts | 319° |
| 2026-04-21 23:05 | 1.83690 | -60.30079 | 33011 ft | 402 kts | 318° |
| 2026-04-21 23:05 | 1.85736 | -60.31974 | 32266 ft | 399 kts | 318° |
| 2026-04-21 23:05 | 1.87761 | -60.33846 | 31554 ft | 396 kts | 318° |
| 2026-04-21 23:05 | 1.89773 | -60.35710 | 30848 ft | 392 kts | 318° |
| 2026-04-21 23:06 | 1.91762 | -60.37548 | 30164 ft | 389 kts | 318° |
| 2026-04-21 23:06 | 1.93732 | -60.39373 | 29421 ft | 382 kts | 317° |
| 2026-04-21 23:06 | 1.95665 | -60.41161 | 28648 ft | 376 kts | 317° |
| 2026-04-21 23:06 | 1.97567 | -60.42922 | 27882 ft | 370 kts | 317° |
| 2026-04-21 23:07 | 1.99439 | -60.44654 | 27145 ft | 364 kts | 317° |
| 2026-04-21 23:07 | 2.01282 | -60.46360 | 26429 ft | 358 kts | 317° |
| 2026-04-21 23:07 | 2.03092 | -60.48035 | 25729 ft | 351 kts | 317° |
| 2026-04-21 23:07 | 2.04868 | -60.49679 | 25041 ft | 344 kts | 316° |
| 2026-04-21 23:08 | 2.06611 | -60.51292 | 24374 ft | 338 kts | 317° |
| 2026-04-21 23:08 | 2.08321 | -60.52875 | 23720 ft | 333 kts | 316° |
| 2026-04-21 23:08 | 2.10007 | -60.54435 | 23012 ft | 327 kts | 316° |
| 2026-04-21 23:08 | 2.11661 | -60.55971 | 22251 ft | 322 kts | 316° |
| 2026-04-21 23:09 | 2.13297 | -60.57481 | 21507 ft | 318 kts | 316° |
| 2026-04-21 23:09 | 2.14904 | -60.58971 | 20936 ft | 310 kts | 316° |
| 2026-04-21 23:09 | 2.16437 | -60.60388 | 20899 ft | 289 kts | 316° |
| 2026-04-21 23:09 | 2.17867 | -60.61689 | 20889 ft | 268 kts | 319° |
| 2026-04-21 23:10 | 2.19436 | -60.62645 | 20524 ft | 268 kts | 334° |
| 2026-04-21 23:10 | 2.21198 | -60.63303 | 19999 ft | 272 kts | 339° |
| 2026-04-21 23:10 | 2.22979 | -60.63955 | 19486 ft | 274 kts | 338° |
| 2026-04-21 23:10 | 2.24772 | -60.64612 | 18989 ft | 275 kts | 338° |
| 2026-04-21 23:11 | 2.26563 | -60.65277 | 18493 ft | 274 kts | 339° |
| 2026-04-21 23:11 | 2.28348 | -60.65928 | 18002 ft | 272 kts | 339° |
| 2026-04-21 23:11 | 2.30120 | -60.66583 | 17441 ft | 270 kts | 339° |
| 2026-04-21 23:11 | 2.31808 | -60.67199 | 16870 ft | 246 kts | 339° |
| 2026-04-21 23:12 | 2.33424 | -60.67798 | 16324 ft | 250 kts | 339° |
| 2026-04-21 23:12 | 2.35065 | -60.68400 | 15797 ft | 252 kts | 339° |
| 2026-04-21 23:12 | 2.36718 | -60.69009 | 15278 ft | 254 kts | 339° |
| 2026-04-21 23:12 | 2.38378 | -60.69617 | 14769 ft | 255 kts | 339° |
| 2026-04-21 23:13 | 2.40046 | -60.70232 | 14272 ft | 255 kts | 339° |
| 2026-04-21 23:13 | 2.41667 | -60.70828 | 13757 ft | 236 kts | 340° |
| 2026-04-21 23:13 | 2.43165 | -60.71378 | 13209 ft | 229 kts | 339° |
| 2026-04-21 23:13 | 2.44682 | -60.71938 | 12659 ft | 236 kts | 340° |
| 2026-04-21 23:14 | 2.46239 | -60.72507 | 12125 ft | 240 kts | 340° |
| 2026-04-21 23:14 | 2.47793 | -60.73082 | 11607 ft | 239 kts | 340° |
| 2026-04-21 23:14 | 2.49282 | -60.73626 | 11054 ft | 218 kts | 340° |
| 2026-04-21 23:14 | 2.50662 | -60.74139 | 10529 ft | 206 kts | 340° |
| 2026-04-21 23:15 | 2.52012 | -60.74628 | 10053 ft | 207 kts | 340° |
| 2026-04-21 23:15 | 2.53375 | -60.75137 | 9587 ft | 206 kts | 340° |
| 2026-04-21 23:15 | 2.54665 | -60.75607 | 9076 ft | 196 kts | 341° |
| 2026-04-21 23:15 | 2.55920 | -60.76070 | 8569 ft | 190 kts | 340° |
| 2026-04-21 23:16 | 2.57135 | -60.76519 | 8075 ft | 185 kts | 341° |
| 2026-04-21 23:16 | 2.58337 | -60.76955 | 7585 ft | 182 kts | 341° |
| 2026-04-21 23:16 | 2.59518 | -60.77399 | 7106 ft | 180 kts | 342° |
| 2026-04-21 23:16 | 2.60692 | -60.77821 | 6642 ft | 179 kts | 342° |
| 2026-04-21 23:17 | 2.61854 | -60.78255 | 6172 ft | 177 kts | 342° |
| 2026-04-21 23:17 | 2.63004 | -60.78674 | 5685 ft | 175 kts | 342° |
| 2026-04-21 23:17 | 2.64141 | -60.79098 | 5203 ft | 173 kts | 342° |
| 2026-04-21 23:17 | 2.65271 | -60.79507 | 4725 ft | 172 kts | 343° |
| 2026-04-21 23:18 | 2.66387 | -60.79922 | 4242 ft | 171 kts | 342° |
| 2026-04-21 23:18 | 2.67492 | -60.80327 | 3845 ft | 163 kts | 343° |
| 2026-04-21 23:18 | 2.68418 | -60.80806 | 3787 ft | 140 kts | 332° |
| 2026-04-21 23:18 | 2.69314 | -60.81269 | 3272 ft | 153 kts | 340° |
| 2026-04-21 23:19 | 2.70300 | -60.81737 | 2720 ft | 156 kts | 334° |
| 2026-04-21 23:19 | 2.71226 | -60.82243 | 2337 ft | 141 kts | 336° |
| 2026-04-21 23:19 | 2.72012 | -60.82628 | 2235 ft | 118 kts | 337° |
| 2026-04-21 23:19 | 2.72819 | -60.83050 | 1747 ft | 131 kts | 333° |
| 2026-04-21 23:20 | 2.73352 | -60.83332 | 1742 ft | 132 kts | 334° |
| 2026-04-21 23:20 | 2.74505 | -60.83901 | 1746 ft | 142 kts | 334° |
| 2026-04-21 23:20 | 2.75397 | -60.84305 | 1728 ft | 139 kts | 352° |
| 2026-04-21 23:20 | 2.76289 | -60.84128 | 1738 ft | 126 kts | 24° |
| 2026-04-21 23:21 | 2.76800 | -60.83907 | 1727 ft | 116 kts | 32° |
| 2026-04-21 23:21 | 2.77278 | -60.83330 | 1748 ft | 116 kts | 68° |
| 2026-04-21 23:21 | 2.77688 | -60.82483 | 1773 ft | 133 kts | 60° |
| 2026-04-21 23:21 | 2.78107 | -60.81763 | 1754 ft | 112 kts | 65° |
| 2026-04-21 23:22 | 2.78446 | -60.81072 | 1750 ft | 112 kts | 63° |
| 2026-04-21 23:22 | 2.78842 | -60.80371 | 1759 ft | 118 kts | 63° |
| 2026-04-21 23:22 | 2.79209 | -60.79615 | 1762 ft | 123 kts | 66° |
| 2026-04-21 23:22 | 2.79618 | -60.78853 | 1778 ft | 126 kts | 62° |
| 2026-04-21 23:23 | 2.80008 | -60.78072 | 1777 ft | 123 kts | 68° |
| 2026-04-21 23:23 | 2.80382 | -60.77333 | 1757 ft | 117 kts | 62° |
| 2026-04-21 23:23 | 2.80765 | -60.76610 | 1626 ft | 120 kts | 67° |
| 2026-04-21 23:23 | 2.81129 | -60.75841 | 1472 ft | 125 kts | 63° |
| 2026-04-21 23:24 | 2.81556 | -60.75070 | 1301 ft | 128 kts | 64° |
| 2026-04-21 23:24 | 2.81936 | -60.74262 | 1157 ft | 129 kts | 65° |
| 2026-04-21 23:24 | 2.82357 | -60.73493 | 1026 ft | 122 kts | 64° |
| 2026-04-21 23:24 | 2.82696 | -60.72786 | 888 ft | 109 kts | 67° |
| 2026-04-21 23:25 | 2.83027 | -60.72167 | 654 ft | 95 kts | 63° |
| 2026-04-21 23:25 | 2.83348 | -60.71512 | 546 ft | 103 kts | 68° |
| 2026-04-21 23:25 | 2.83664 | -60.70901 | 451 ft | 106 kts | 64° |
| 2026-04-21 23:25 | 2.83973 | -60.70293 | 299 ft | 93 kts | 65° |
| 2026-04-21 23:26 | 2.84250 | -60.69772 | 274 ft | 72 kts | 62° |
| 2026-04-21 23:26 | 2.84388 | -60.69494 | 272 ft | 50 kts | 63° |
| 2026-04-21 23:26 | 2.84545 | -60.69182 | 274 ft | 37 kts | 63° |
| 2026-04-21 23:26 | 2.84630 | -60.69007 | 276 ft | 21 kts | 73° |
| 2026-04-21 23:27 | 2.84619 | -60.68939 | 276 ft | 18 kts | 160° |
| 2026-04-21 23:27 | 2.84528 | -60.68893 | 275 ft | 9 kts | 154° |
| 2026-04-21 23:27 | 2.84463 | -60.68859 | 275 ft | 8 kts | 152° |
| 2026-04-21 23:27 | 2.84421 | -60.68838 | 275 ft | 7 kts | 167° |
| 2026-04-21 23:28 | 2.84386 | -60.68826 | 275 ft | 5 kts | 221° |
| 2026-04-21 23:28 | 2.84359 | -60.68886 | 275 ft | 15 kts | 252° |
| 2026-04-21 23:28 | 2.84381 | -60.68925 | 275 ft | 8 kts | 352° |
| 2026-04-21 23:28 | 2.84392 | -60.68909 | 275 ft | 2 kts | 143° |
| 2026-04-21 23:29 | 2.84383 | -60.68903 | 275 ft | 0 kts | 149° |